Time;durP1;ratioP1;P1;durP2;ratioP2;P2;SDS_P1;SDS_P2;PMS_P1;PMS_P2;Temp;Humidity;BMP_temperature;BMP_pressure;BME280_temperature;BME280_humidity;BME280_pressure;Samples;Min_cycle;Max_cycle;Signal;HPM_P1;HPM_P2
2023/12/04 00:02:21;;;;;;;15.25;7.75;;;;;;;;;;5019193;28;20029;-79
2023/12/04 00:04:48;;;;;;;15.13;7.57;;;;;;;;;;5019732;28;20026;-78
2023/12/04 00:07:14;;;;;;;14.57;7.90;;;;;;;;;;5025347;28;20041;-78
2023/12/04 00:09:40;;;;;;;14.65;8.48;;;;;;;;;;5028214;28;20040;-79
2023/12/04 00:12:06;;;;;;;15.63;7.80;;;;;;;;;;5018067;28;20026;-78
2023/12/04 00:14:32;;;;;;;14.30;7.55;;;;;;;;;;5021649;28;20045;-78
2023/12/04 00:16:58;;;;;;;14.43;6.82;;;;;;;;;;5022729;28;20022;-79
2023/12/04 00:19:25;;;;;;;12.25;6.22;;;;;;;;;;5020544;28;20148;-78
2023/12/04 00:21:51;;;;;;;14.80;7.97;;;;;;;;;;5022386;28;20037;-78
2023/12/04 00:24:17;;;;;;;12.65;6.30;;;;;;;;;;5024620;28;20023;-79
2023/12/04 00:26:44;;;;;;;12.77;6.88;;;;;;;;;;5024480;28;20098;-77
2023/12/04 00:29:10;;;;;;;12.32;6.22;;;;;;;;;;5023875;28;20084;-78
2023/12/04 00:31:36;;;;;;;9.57;5.30;;;;;;;;;;5014711;28;20093;-78
2023/12/04 00:34:03;;;;;;;10.60;5.63;;;;;;;;;;5013090;28;20077;-78
2023/12/04 00:36:32;;;;;;;12.98;6.82;;;;;;;;;;5017889;28;20106;-77
2023/12/04 00:38:58;;;;;;;14.45;7.10;;;;;;;;;;5016509;28;20029;-78
2023/12/04 00:41:24;;;;;;;13.93;7.15;;;;;;;;;;5014600;28;20031;-79
2023/12/04 00:43:50;;;;;;;13.75;6.55;;;;;;;;;;5021629;28;20046;-78
2023/12/04 00:46:16;;;;;;;12.70;5.78;;;;;;;;;;5013943;28;20022;-78
2023/12/04 00:48:42;;;;;;;10.98;6.18;;;;;;;;;;5016572;28;20226;-78
2023/12/04 00:51:09;;;;;;;10.93;5.57;;;;;;;;;;5006503;28;20030;-77
2023/12/04 00:53:35;;;;;;;11.90;5.82;;;;;;;;;;5023729;28;20057;-78
2023/12/04 00:56:01;;;;;;;9.40;5.53;;;;;;;;;;5023021;28;20030;-79
2023/12/04 00:58:27;;;;;;;10.07;5.18;;;;;;;;;;5040401;28;20100;-78
2023/12/04 01:00:53;;;;;;;10.57;5.13;;;;;;;;;;5023488;28;20113;-79
2023/12/04 01:03:19;;;;;;;9.95;5.57;;;;;;;;;;5024696;28;20026;-79
2023/12/04 01:05:46;;;;;;;10.18;5.40;;;;;;;;;;5025914;28;20029;-79
2023/12/04 01:08:12;;;;;;;7.32;4.85;;;;;;;;;;5030956;28;20026;-79
2023/12/04 01:10:39;;;;;;;10.52;5.47;;;;;;;;;;5017235;28;20070;-79
2023/12/04 01:13:05;;;;;;;8.05;4.80;;;;;;;;;;5026812;28;20036;-79
2023/12/04 01:15:31;;;;;;;8.70;4.53;;;;;;;;;;5029225;28;20030;-79
2023/12/04 01:18:00;;;;;;;8.68;4.93;;;;;;;;;;5026040;28;20030;-79
2023/12/04 01:20:26;;;;;;;9.63;5.00;;;;;;;;;;5026953;28;20029;-78
2023/12/04 01:22:52;;;;;;;10.90;4.35;;;;;;;;;;5035163;28;20034;-79
2023/12/04 01:25:18;;;;;;;9.05;4.78;;;;;;;;;;5029369;28;20026;-78
2023/12/04 01:27:45;;;;;;;8.38;4.85;;;;;;;;;;5033387;28;20109;-78
2023/12/04 01:30:12;;;;;;;8.73;4.25;;;;;;;;;;5034212;28;20061;-78
2023/12/04 01:32:38;;;;;;;9.05;4.57;;;;;;;;;;5024316;28;20029;-78
2023/12/04 01:35:05;;;;;;;8.35;4.40;;;;;;;;;;5029293;28;20025;-78
2023/12/04 01:37:31;;;;;;;11.13;5.18;;;;;;;;;;5021050;28;20026;-78
2023/12/04 01:39:58;;;;;;;8.52;4.00;;;;;;;;;;5030051;28;20109;-79
2023/12/04 01:42:24;;;;;;;7.13;4.25;;;;;;;;;;5028817;28;20104;-78
2023/12/04 01:44:50;;;;;;;8.32;4.57;;;;;;;;;;5023510;28;20030;-79
2023/12/04 01:47:18;;;;;;;7.63;3.85;;;;;;;;;;5020064;28;20057;-79
2023/12/04 01:49:44;;;;;;;8.77;4.15;;;;;;;;;;5020564;28;20030;-79
2023/12/04 01:52:11;;;;;;;7.22;4.22;;;;;;;;;;5025842;28;20033;-79
2023/12/04 01:54:37;;;;;;;9.02;4.82;;;;;;;;;;5032625;28;20033;-78
2023/12/04 01:57:03;;;;;;;11.63;6.00;;;;;;;;;;5032131;28;20087;-79
2023/12/04 01:59:30;;;;;;;7.50;4.22;;;;;;;;;;5023004;28;20033;-78
2023/12/04 02:01:56;;;;;;;7.68;4.65;;;;;;;;;;5024037;28;20048;-78
2023/12/04 02:04:22;;;;;;;6.80;4.25;;;;;;;;;;5025390;28;20029;-78
2023/12/04 02:06:48;;;;;;;7.18;4.30;;;;;;;;;;5015048;28;20116;-78
2023/12/04 02:09:16;;;;;;;6.75;3.72;;;;;;;;;;5024588;28;20133;-78
2023/12/04 02:11:42;;;;;;;7.45;3.45;;;;;;;;;;5021301;28;20479;-77
2023/12/04 02:14:08;;;;;;;6.38;3.40;;;;;;;;;;5022642;28;20032;-78
2023/12/04 02:16:39;;;;;;;7.40;3.08;;;;;;;;;;5021080;28;20062;-78
2023/12/04 02:19:07;;;;;;;8.63;4.00;;;;;;;;;;5023726;28;20041;-78
2023/12/04 02:21:33;;;;;;;7.13;4.38;;;;;;;;;;5023168;28;20030;-77
2023/12/04 02:24:00;;;;;;;8.27;4.38;;;;;;;;;;5015281;28;20372;-78
2023/12/04 02:26:29;;;;;;;6.00;4.03;;;;;;;;;;5020463;28;20087;-78
2023/12/04 02:28:59;;;;;;;9.57;4.60;;;;;;;;;;5041218;28;20052;-79
2023/12/04 02:31:25;;;;;;;6.22;4.25;;;;;;;;;;5027271;28;20045;-78
2023/12/04 02:33:53;;;;;;;6.35;3.33;;;;;;;;;;5018403;28;20034;-78
2023/12/04 02:36:20;;;;;;;6.70;3.45;;;;;;;;;;5021759;28;20025;-78
2023/12/04 02:38:46;;;;;;;6.32;3.38;;;;;;;;;;5005352;28;20027;-78
2023/12/04 02:41:12;;;;;;;6.20;3.65;;;;;;;;;;5020608;28;20097;-79
2023/12/04 02:43:38;;;;;;;9.48;4.80;;;;;;;;;;5016284;28;20042;-78
2023/12/04 02:46:05;;;;;;;9.75;5.70;;;;;;;;;;5013337;28;20337;-79
2023/12/04 02:48:31;;;;;;;8.45;4.68;;;;;;;;;;5015834;28;20030;-78
2023/12/04 02:50:57;;;;;;;9.02;4.53;;;;;;;;;;5017993;28;20026;-78
2023/12/04 02:53:23;;;;;;;9.27;4.88;;;;;;;;;;5009503;28;20033;-80
2023/12/04 02:55:49;;;;;;;7.55;4.25;;;;;;;;;;5015031;28;20109;-79
2023/12/04 02:58:15;;;;;;;8.93;4.63;;;;;;;;;;5025515;28;20084;-79
2023/12/04 03:00:41;;;;;;;8.13;4.85;;;;;;;;;;5026151;28;20029;-79
2023/12/04 03:03:07;;;;;;;9.63;4.78;;;;;;;;;;5024097;28;20086;-78
2023/12/04 03:05:33;;;;;;;6.70;4.53;;;;;;;;;;5022676;28;20041;-78
2023/12/04 03:08:00;;;;;;;8.77;4.60;;;;;;;;;;5022089;28;20018;-78
2023/12/04 03:10:26;;;;;;;8.75;4.38;;;;;;;;;;5031034;28;20032;-78
2023/12/04 03:12:52;;;;;;;7.97;4.60;;;;;;;;;;5035285;28;20052;-79
2023/12/04 03:15:18;;;;;;;8.57;4.93;;;;;;;;;;5018884;28;20101;-79
2023/12/04 03:17:44;;;;;;;8.60;4.85;;;;;;;;;;5019347;28;20049;-79
2023/12/04 03:20:11;;;;;;;10.65;5.30;;;;;;;;;;5020976;28;20036;-79
2023/12/04 03:22:38;;;;;;;12.75;6.15;;;;;;;;;;5017822;28;20049;-79
2023/12/04 03:25:04;;;;;;;12.38;5.97;;;;;;;;;;5018233;28;20049;-78
2023/12/04 03:27:30;;;;;;;9.40;5.13;;;;;;;;;;5023943;28;20469;-79
2023/12/04 03:29:56;;;;;;;12.10;6.80;;;;;;;;;;5032983;28;20025;-78
2023/12/04 03:32:23;;;;;;;11.90;5.85;;;;;;;;;;5033084;28;20018;-78
2023/12/04 03:34:49;;;;;;;14.77;6.38;;;;;;;;;;5032867;28;20031;-78
2023/12/04 03:37:15;;;;;;;13.95;7.13;;;;;;;;;;5019235;28;20081;-79
2023/12/04 03:39:41;;;;;;;12.32;6.05;;;;;;;;;;5027001;28;20092;-78
2023/12/04 03:42:07;;;;;;;10.73;6.03;;;;;;;;;;5019129;28;20026;-79
2023/12/04 03:44:33;;;;;;;12.45;6.13;;;;;;;;;;5018590;28;20114;-79
2023/12/04 03:46:59;;;;;;;10.68;5.07;;;;;;;;;;5010992;28;20040;-79
2023/12/04 03:49:26;;;;;;;13.48;6.40;;;;;;;;;;5026452;28;20040;-79
2023/12/04 03:51:52;;;;;;;13.77;6.75;;;;;;;;;;5029812;28;20030;-79
2023/12/04 03:54:18;;;;;;;10.45;5.88;;;;;;;;;;5028029;28;20040;-79
2023/12/04 03:56:44;;;;;;;9.48;5.38;;;;;;;;;;5006392;28;20026;-79
2023/12/04 03:59:11;;;;;;;12.18;6.55;;;;;;;;;;5037684;28;20040;-79
2023/12/04 04:01:37;;;;;;;10.70;5.95;;;;;;;;;;5022415;28;20122;-79
2023/12/04 04:04:03;;;;;;;11.38;6.20;;;;;;;;;;5017429;28;20018;-79
2023/12/04 04:06:29;;;;;;;12.40;5.78;;;;;;;;;;5016799;28;20065;-79
2023/12/04 04:08:55;;;;;;;9.85;5.43;;;;;;;;;;5016350;28;20377;-79
2023/12/04 04:11:21;;;;;;;11.80;6.18;;;;;;;;;;5017360;28;20026;-79
2023/12/04 04:13:48;;;;;;;11.75;6.82;;;;;;;;;;5016725;28;20037;-79
2023/12/04 04:16:17;;;;;;;15.30;7.25;;;;;;;;;;5013645;28;20447;-78
2023/12/04 04:18:43;;;;;;;15.05;8.00;;;;;;;;;;5003612;28;20033;-78
2023/12/04 04:21:09;;;;;;;16.33;7.38;;;;;;;;;;4998893;28;20368;-78
2023/12/04 04:23:36;;;;;;;18.67;8.90;;;;;;;;;;4994833;28;20030;-77
2023/12/04 04:26:02;;;;;;;16.08;7.75;;;;;;;;;;5014738;28;20014;-78
2023/12/04 04:28:28;;;;;;;14.63;7.57;;;;;;;;;;5014976;28;20041;-77
2023/12/04 04:30:54;;;;;;;15.73;7.80;;;;;;;;;;5017347;28;20471;-78
2023/12/04 04:33:20;;;;;;;18.38;9.32;;;;;;;;;;5026293;28;20516;-77
2023/12/04 04:35:46;;;;;;;16.40;7.80;;;;;;;;;;5034427;28;20025;-76
2023/12/04 04:38:13;;;;;;;11.88;6.88;;;;;;;;;;5021281;28;20032;-78
2023/12/04 04:40:42;;;;;;;13.15;7.25;;;;;;;;;;5021502;28;20044;-78
2023/12/04 04:43:08;;;;;;;14.80;7.15;;;;;;;;;;5009845;28;20180;-79
2023/12/04 04:45:34;;;;;;;12.20;6.30;;;;;;;;;;5021595;28;20049;-82
2023/12/04 04:48:00;;;;;;;12.13;6.55;;;;;;;;;;5010176;28;20025;-78
2023/12/04 04:50:26;;;;;;;9.73;5.95;;;;;;;;;;5020421;28;20101;-79
2023/12/04 04:52:52;;;;;;;13.32;6.22;;;;;;;;;;5025898;28;20068;-78
2023/12/04 04:55:18;;;;;;;11.05;4.97;;;;;;;;;;5024976;28;20081;-77
2023/12/04 04:57:45;;;;;;;10.07;5.45;;;;;;;;;;5027344;28;20061;-77
2023/12/04 05:00:11;;;;;;;11.88;5.30;;;;;;;;;;5048520;28;20084;-77
2023/12/04 05:02:37;;;;;;;9.57;5.32;;;;;;;;;;5033158;28;20022;-78
2023/12/04 05:05:04;;;;;;;11.32;5.85;;;;;;;;;;5028717;28;20082;-78
2023/12/04 05:07:30;;;;;;;10.10;5.60;;;;;;;;;;5015321;28;20061;-78
2023/12/04 05:09:57;;;;;;;10.75;5.25;;;;;;;;;;5028812;28;20173;-78
2023/12/04 05:12:23;;;;;;;11.95;6.13;;;;;;;;;;5028929;28;20107;-78
2023/12/04 05:14:49;;;;;;;12.85;5.82;;;;;;;;;;5021318;28;20041;-79
2023/12/04 05:17:15;;;;;;;13.75;6.43;;;;;;;;;;5019659;28;20037;-78
2023/12/04 05:19:41;;;;;;;13.52;6.63;;;;;;;;;;5018556;28;20034;-80
2023/12/04 05:22:08;;;;;;;12.40;5.40;;;;;;;;;;5018464;28;20018;-78
2023/12/04 05:24:35;;;;;;;9.95;6.05;;;;;;;;;;5016382;28;20096;-78
2023/12/04 05:27:02;;;;;;;12.55;5.82;;;;;;;;;;5022744;28;20129;-78
2023/12/04 05:29:28;;;;;;;9.50;5.28;;;;;;;;;;5027794;28;20030;-78
2023/12/04 05:31:54;;;;;;;11.55;6.10;;;;;;;;;;5025410;28;20038;-77
2023/12/04 05:34:20;;;;;;;9.82;4.93;;;;;;;;;;5026677;28;20033;-77
2023/12/04 05:36:46;;;;;;;9.98;5.22;;;;;;;;;;5025096;28;20030;-79
2023/12/04 05:39:12;;;;;;;9.10;4.70;;;;;;;;;;5027597;28;20030;-77
2023/12/04 05:41:38;;;;;;;11.20;5.28;;;;;;;;;;5019643;28;20037;-77
2023/12/04 05:44:04;;;;;;;11.60;5.68;;;;;;;;;;5030291;28;20006;-77
2023/12/04 05:46:32;;;;;;;9.15;5.18;;;;;;;;;;5028812;28;20079;-76
2023/12/04 05:48:58;;;;;;;8.60;4.82;;;;;;;;;;5027851;28;20026;-78
2023/12/04 05:51:24;;;;;;;8.45;4.63;;;;;;;;;;5028230;28;20040;-79
2023/12/04 05:53:50;;;;;;;10.75;4.82;;;;;;;;;;5024278;28;20042;-79
2023/12/04 05:56:16;;;;;;;6.90;3.97;;;;;;;;;;5022844;28;20026;-79
2023/12/04 05:58:42;;;;;;;7.78;4.43;;;;;;;;;;5027857;28;20034;-79
2023/12/04 06:01:08;;;;;;;8.10;4.18;;;;;;;;;;5033539;28;20034;-79
2023/12/04 06:03:34;;;;;;;9.77;4.43;;;;;;;;;;5023672;28;20067;-77
2023/12/04 06:06:01;;;;;;;6.57;3.67;;;;;;;;;;5035785;28;20042;-77
2023/12/04 06:08:27;;;;;;;6.97;3.92;;;;;;;;;;5028802;28;20026;-77
2023/12/04 06:10:53;;;;;;;7.18;3.75;;;;;;;;;;5029674;28;20029;-78
2023/12/04 06:13:19;;;;;;;8.52;4.05;;;;;;;;;;5030224;28;20124;-78
2023/12/04 06:15:45;;;;;;;8.15;3.83;;;;;;;;;;5030251;28;20044;-78
2023/12/04 06:18:11;;;;;;;7.30;3.97;;;;;;;;;;5031682;28;20033;-78
2023/12/04 06:20:37;;;;;;;7.00;3.97;;;;;;;;;;5030953;28;20026;-78
2023/12/04 06:23:04;;;;;;;9.80;4.50;;;;;;;;;;5033113;28;20369;-78
2023/12/04 06:25:30;;;;;;;10.02;4.80;;;;;;;;;;5022577;28;20241;-76
2023/12/04 06:27:56;;;;;;;7.63;4.60;;;;;;;;;;5037816;28;20029;-78
2023/12/04 06:30:23;;;;;;;7.88;4.30;;;;;;;;;;5023537;28;20099;-78
2023/12/04 06:32:49;;;;;;;8.02;4.10;;;;;;;;;;5007435;28;20189;-78
2023/12/04 06:35:16;;;;;;;7.57;4.00;;;;;;;;;;5026009;28;20520;-77
2023/12/04 06:37:43;;;;;;;7.25;3.90;;;;;;;;;;5021333;28;20034;-78
2023/12/04 06:40:11;;;;;;;6.55;3.97;;;;;;;;;;5011410;28;20037;-78
2023/12/04 06:42:37;;;;;;;7.70;4.35;;;;;;;;;;5023856;28;20064;-78
2023/12/04 06:45:04;;;;;;;8.90;5.03;;;;;;;;;;5012641;28;20034;-83
2023/12/04 06:47:32;;;;;;;5.65;3.60;;;;;;;;;;5009671;28;20034;-79
2023/12/04 06:49:58;;;;;;;7.70;4.35;;;;;;;;;;5016489;28;20033;-80
2023/12/04 06:52:24;;;;;;;9.98;4.38;;;;;;;;;;5013036;28;20040;-79
2023/12/04 06:54:51;;;;;;;7.93;4.65;;;;;;;;;;5021474;28;20078;-80
2023/12/04 06:57:17;;;;;;;9.88;4.40;;;;;;;;;;5025922;28;20427;-80
2023/12/04 06:59:43;;;;;;;7.20;4.07;;;;;;;;;;5015773;28;20476;-79
2023/12/04 07:02:09;;;;;;;8.77;4.40;;;;;;;;;;5028114;28;20026;-76
2023/12/04 07:04:36;;;;;;;6.70;4.18;;;;;;;;;;5026293;28;20057;-79
2023/12/04 07:07:04;;;;;;;8.32;3.70;;;;;;;;;;5035429;28;20037;-79
2023/12/04 07:09:34;;;;;;;7.63;4.25;;;;;;;;;;5029925;28;20040;-79
2023/12/04 07:12:02;;;;;;;7.75;4.13;;;;;;;;;;5025876;28;20469;-79
2023/12/04 07:14:28;;;;;;;9.20;3.90;;;;;;;;;;5016467;28;20107;-79
2023/12/04 07:16:54;;;;;;;7.95;4.18;;;;;;;;;;5016241;28;20406;-79
2023/12/04 07:19:21;;;;;;;7.90;3.92;;;;;;;;;;5015914;28;20030;-78
2023/12/04 07:21:49;;;;;;;6.30;3.80;;;;;;;;;;5011725;28;20088;-80
2023/12/04 07:24:16;;;;;;;7.18;4.10;;;;;;;;;;5018052;28;20018;-77
2023/12/04 07:26:42;;;;;;;8.75;4.60;;;;;;;;;;5019774;28;20017;-76
2023/12/04 07:29:09;;;;;;;6.75;3.60;;;;;;;;;;5032350;28;20022;-77
2023/12/04 07:31:35;;;;;;;8.10;3.90;;;;;;;;;;5010151;28;20050;-78
2023/12/04 07:34:01;;;;;;;5.82;3.70;;;;;;;;;;5018037;28;20089;-79
2023/12/04 07:36:28;;;;;;;6.95;3.88;;;;;;;;;;5017337;28;20392;-78
2023/12/04 07:38:54;;;;;;;7.57;4.20;;;;;;;;;;5018464;28;20710;-78
2023/12/04 07:41:21;;;;;;;6.65;4.10;;;;;;;;;;5019763;28;20034;-77
2023/12/04 07:43:48;;;;;;;7.35;3.95;;;;;;;;;;5019827;28;20100;-78
2023/12/04 07:46:14;;;;;;;7.28;4.07;;;;;;;;;;5024667;28;20029;-78
2023/12/04 07:48:40;;;;;;;8.13;4.55;;;;;;;;;;5034121;28;20036;-76
2023/12/04 07:51:07;;;;;;;8.18;4.88;;;;;;;;;;5013371;28;20036;-78
2023/12/04 07:53:33;;;;;;;7.57;4.82;;;;;;;;;;5020869;28;20037;-78
2023/12/04 07:56:06;;;;;;;7.47;4.82;;;;;;;;;;5028573;28;20095;-77
2023/12/04 07:58:32;;;;;;;8.75;4.75;;;;;;;;;;5033106;28;20093;-78
2023/12/04 08:00:59;;;;;;;8.73;4.80;;;;;;;;;;5028614;28;20085;-78
2023/12/04 08:03:25;;;;;;;10.55;5.57;;;;;;;;;;5020762;28;20041;-78
2023/12/04 08:05:51;;;;;;;12.18;5.75;;;;;;;;;;5023236;28;20036;-78
2023/12/04 08:08:18;;;;;;;8.23;4.80;;;;;;;;;;5034934;28;20080;-77
2023/12/04 08:10:44;;;;;;;11.80;5.38;;;;;;;;;;5033596;28;20026;-78
2023/12/04 08:13:10;;;;;;;11.15;5.80;;;;;;;;;;5031070;28;20463;-76
2023/12/04 08:15:36;;;;;;;9.73;5.07;;;;;;;;;;5032803;28;20080;-78
2023/12/04 08:18:02;;;;;;;9.05;4.85;;;;;;;;;;5024575;28;20081;-80
2023/12/04 08:20:28;;;;;;;8.80;4.50;;;;;;;;;;5016451;28;20026;-78
2023/12/04 08:22:55;;;;;;;7.57;4.35;;;;;;;;;;5004990;28;20038;-79
2023/12/04 08:25:21;;;;;;;8.23;4.45;;;;;;;;;;5016799;28;20054;-78
2023/12/04 08:27:49;;;;;;;7.65;3.88;;;;;;;;;;5040396;28;20029;-79
2023/12/04 08:30:15;;;;;;;11.57;4.82;;;;;;;;;;5029348;28;20036;-78
2023/12/04 08:32:41;;;;;;;6.53;3.95;;;;;;;;;;5013364;28;20092;-78
2023/12/04 08:35:08;;;;;;;9.68;4.45;;;;;;;;;;5007027;28;20056;-79
2023/12/04 08:37:34;;;;;;;8.45;5.13;;;;;;;;;;5015759;28;20045;-77
2023/12/04 08:40:00;;;;;;;10.88;5.75;;;;;;;;;;5023746;28;20041;-82
2023/12/04 08:42:26;;;;;;;9.65;5.20;;;;;;;;;;5024006;28;20025;-81
2023/12/04 08:44:52;;;;;;;9.68;4.80;;;;;;;;;;5024904;28;20391;-81
2023/12/04 08:47:19;;;;;;;10.75;5.80;;;;;;;;;;5024375;28;20033;-81
2023/12/04 08:49:45;;;;;;;9.55;4.95;;;;;;;;;;5023675;28;20049;-82
2023/12/04 08:52:12;;;;;;;12.10;6.25;;;;;;;;;;5019428;28;20072;-81
2023/12/04 08:54:44;;;;;;;11.25;5.57;;;;;;;;;;5017900;28;20099;-82
2023/12/04 08:57:10;;;;;;;8.15;4.57;;;;;;;;;;5011424;28;20085;-82
2023/12/04 08:59:36;;;;;;;8.98;5.32;;;;;;;;;;5020119;28;20299;-82
2023/12/04 09:02:03;;;;;;;9.30;4.93;;;;;;;;;;5030823;28;20030;-80
2023/12/04 09:04:31;;;;;;;8.38;5.03;;;;;;;;;;5027473;28;20036;-79
2023/12/04 09:06:57;;;;;;;8.95;5.10;;;;;;;;;;5035819;28;20065;-78
2023/12/04 09:09:23;;;;;;;9.07;4.38;;;;;;;;;;5036169;28;20046;-79
2023/12/04 09:11:50;;;;;;;8.27;4.43;;;;;;;;;;5028968;28;20037;-82
2023/12/04 09:14:16;;;;;;;7.65;4.53;;;;;;;;;;5026133;28;20026;-82
2023/12/04 09:16:43;;;;;;;9.43;5.90;;;;;;;;;;5004698;28;20118;-82
2023/12/04 09:19:09;;;;;;;9.55;5.38;;;;;;;;;;5035226;28;20010;-80
2023/12/04 09:21:37;;;;;;;9.85;5.32;;;;;;;;;;5031816;28;20018;-78
2023/12/04 09:24:03;;;;;;;11.05;5.47;;;;;;;;;;5026869;28;20054;-78
2023/12/04 09:26:29;;;;;;;10.45;5.97;;;;;;;;;;5017623;28;20045;-78
2023/12/04 09:28:56;;;;;;;8.65;5.35;;;;;;;;;;5022148;28;20023;-77
2023/12/04 09:31:22;;;;;;;10.00;5.78;;;;;;;;;;5015490;28;20032;-78
2023/12/04 09:33:48;;;;;;;8.55;4.72;;;;;;;;;;5020170;28;20033;-78
2023/12/04 09:36:14;;;;;;;8.90;5.20;;;;;;;;;;5022826;28;20050;-79
2023/12/04 09:38:40;;;;;;;6.53;4.28;;;;;;;;;;5019196;28;20033;-78
2023/12/04 09:41:09;;;;;;;9.32;4.97;;;;;;;;;;5020076;28;20030;-78
2023/12/04 09:43:35;;;;;;;10.00;5.35;;;;;;;;;;5019682;28;20041;-78
2023/12/04 09:46:02;;;;;;;11.32;6.10;;;;;;;;;;5020641;28;20034;-78
2023/12/04 09:48:28;;;;;;;10.18;5.00;;;;;;;;;;5019144;28;20026;-79
2023/12/04 09:50:54;;;;;;;10.43;5.90;;;;;;;;;;5021051;28;20114;-78
2023/12/04 09:53:21;;;;;;;8.57;4.97;;;;;;;;;;5017805;28;20181;-77
2023/12/04 09:55:50;;;;;;;9.15;5.43;;;;;;;;;;5020960;28;20124;-78
2023/12/04 09:58:19;;;;;;;6.85;4.88;;;;;;;;;;5022568;28;20036;-78
2023/12/04 10:00:45;;;;;;;8.48;5.07;;;;;;;;;;5023183;28;20124;-78
2023/12/04 10:03:12;;;;;;;8.52;4.78;;;;;;;;;;5021088;28;20026;-78
2023/12/04 10:05:44;;;;;;;10.88;5.63;;;;;;;;;;5022423;28;20041;-80
2023/12/04 10:08:10;;;;;;;9.43;4.88;;;;;;;;;;5007912;28;20065;-78
2023/12/04 10:10:36;;;;;;;12.43;6.10;;;;;;;;;;5014280;28;20140;-78
2023/12/04 10:13:03;;;;;;;9.07;5.40;;;;;;;;;;5017279;28;20086;-78
2023/12/04 10:15:29;;;;;;;10.38;6.28;;;;;;;;;;5017284;28;20033;-78
2023/12/04 10:17:56;;;;;;;12.38;6.25;;;;;;;;;;5016819;28;20036;-79
2023/12/04 10:20:24;;;;;;;13.32;6.80;;;;;;;;;;5017784;28;20017;-78
2023/12/04 10:22:57;;;;;;;11.73;6.60;;;;;;;;;;5019437;28;20030;-78
2023/12/04 10:25:28;;;;;;;12.38;7.30;;;;;;;;;;5019144;28;20032;-78
2023/12/04 10:27:55;;;;;;;14.90;8.73;;;;;;;;;;5024108;28;20022;-79
2023/12/04 10:30:25;;;;;;;14.63;8.15;;;;;;;;;;5039820;28;20049;-77
2023/12/04 10:32:54;;;;;;;16.45;8.68;;;;;;;;;;5021602;28;20043;-78
2023/12/04 10:35:21;;;;;;;18.25;9.18;;;;;;;;;;5010233;28;20026;-79
2023/12/04 10:37:47;;;;;;;15.77;9.38;;;;;;;;;;5016933;28;20038;-78
2023/12/04 10:40:23;;;;;;;18.05;9.38;;;;;;;;;;5018650;28;20026;-77
2023/12/04 10:42:49;;;;;;;17.00;9.00;;;;;;;;;;5018554;28;20030;-78
2023/12/04 10:45:15;;;;;;;14.32;8.20;;;;;;;;;;5017906;28;20057;-79
2023/12/04 10:47:41;;;;;;;12.75;7.90;;;;;;;;;;5024647;28;20057;-79
2023/12/04 10:50:07;;;;;;;14.60;8.25;;;;;;;;;;5006124;28;20050;-78
2023/12/04 10:52:34;;;;;;;17.25;7.97;;;;;;;;;;4997826;28;20101;-78
2023/12/04 10:55:01;;;;;;;14.52;7.70;;;;;;;;;;5008209;28;20034;-78
2023/12/04 10:57:28;;;;;;;12.13;7.03;;;;;;;;;;5024927;28;20021;-78
2023/12/04 10:59:57;;;;;;;12.88;7.72;;;;;;;;;;5022744;28;20088;-78
2023/12/04 11:02:26;;;;;;;11.88;7.07;;;;;;;;;;5025222;28;20038;-78
2023/12/04 11:04:55;;;;;;;11.38;7.00;;;;;;;;;;5019424;28;20176;-78
2023/12/04 11:07:22;;;;;;;10.70;6.40;;;;;;;;;;5019292;28;20094;-78
2023/12/04 11:09:50;;;;;;;25.83;13.10;;;;;;;;;;5013656;28;20045;-78
2023/12/04 11:12:18;;;;;;;27.70;12.32;;;;;;;;;;5026082;28;20037;-79
2023/12/04 11:14:47;;;;;;;18.70;11.00;;;;;;;;;;5027671;28;20028;-78
2023/12/04 11:17:14;;;;;;;16.85;10.90;;;;;;;;;;5024824;28;20094;-77
2023/12/04 11:19:55;;;;;;;20.73;11.88;;;;;;;;;;5011411;28;20096;-80
2023/12/04 11:22:22;;;;;;;19.48;10.23;;;;;;;;;;5010705;28;20030;-78
2023/12/04 11:24:49;;;;;;;18.05;10.73;;;;;;;;;;5016068;28;20029;-78
2023/12/04 11:27:16;;;;;;;17.38;10.65;;;;;;;;;;5023408;28;20056;-79
2023/12/04 11:29:43;;;;;;;18.60;9.73;;;;;;;;;;5015656;28;20038;-80
2023/12/04 11:32:13;;;;;;;17.10;9.13;;;;;;;;;;5030595;28;20037;-78
2023/12/04 11:34:47;;;;;;;17.52;10.05;;;;;;;;;;5031267;28;20030;-79
2023/12/04 11:37:14;;;;;;;17.98;10.27;;;;;;;;;;5016225;28;20026;-78
2023/12/04 11:39:40;;;;;;;16.60;10.00;;;;;;;;;;5022888;28;20506;-79
2023/12/04 11:42:12;;;;;;;17.55;9.48;;;;;;;;;;5029605;28;20030;-79
2023/12/04 11:44:38;;;;;;;;;;;;;;;;;;5031520;28;20026;-80
2023/12/04 11:47:06;;;;;;;12.98;7.60;;;;;;;;;;5024706;28;19956;-79
2023/12/04 11:49:32;;;;;;;13.65;7.82;;;;;;;;;;5021776;28;20026;-79
2023/12/04 11:51:59;;;;;;;13.18;8.18;;;;;;;;;;5020075;28;20034;-79
2023/12/04 11:54:26;;;;;;;15.40;8.88;;;;;;;;;;5019794;28;20108;-79
2023/12/04 11:57:19;;;;;;;18.60;9.98;;;;;;;;;;5029709;28;20071;-78
2023/12/04 11:59:45;;;;;;;22.67;11.05;;;;;;;;;;5031411;28;20045;-79
2023/12/04 12:02:11;;;;;;;18.35;9.43;;;;;;;;;;5020551;28;20104;-78
2023/12/04 12:04:38;;;;;;;17.83;10.07;;;;;;;;;;5020752;28;20345;-78
2023/12/04 12:07:05;;;;;;;15.80;9.20;;;;;;;;;;5021173;28;20048;-78
2023/12/04 12:09:33;;;;;;;19.52;10.10;;;;;;;;;;5021572;28;20506;-79
2023/12/04 12:12:02;;;;;;;17.52;9.45;;;;;;;;;;5013110;28;20029;-81
2023/12/04 12:14:29;;;;;;;17.65;8.82;;;;;;;;;;5020249;28;20037;-79
2023/12/04 12:16:55;;;;;;;18.33;9.57;;;;;;;;;;5019703;28;20437;-79
2023/12/04 12:19:22;;;;;;;19.73;10.38;;;;;;;;;;5021539;28;20022;-78
2023/12/04 12:21:49;;;;;;;19.80;11.35;;;;;;;;;;5019084;28;20022;-78
2023/12/04 12:24:15;;;;;;;17.63;9.80;;;;;;;;;;5012583;28;20029;-78
2023/12/04 12:26:41;;;;;;;17.02;9.77;;;;;;;;;;5028954;28;20025;-77
2023/12/04 12:29:09;;;;;;;18.13;9.55;;;;;;;;;;5034302;28;20026;-78
2023/12/04 12:31:35;;;;;;;18.60;10.32;;;;;;;;;;5005805;28;20133;-78
2023/12/04 12:34:02;;;;;;;21.17;11.07;;;;;;;;;;5014693;28;20034;-78
2023/12/04 12:36:29;;;;;;;16.50;9.85;;;;;;;;;;5028441;28;20349;-77
2023/12/04 12:38:56;;;;;;;16.70;9.98;;;;;;;;;;5021525;28;20052;-78
2023/12/04 12:41:22;;;;;;;17.05;9.98;;;;;;;;;;5023034;28;20044;-79
2023/12/04 12:43:52;;;;;;;16.20;9.38;;;;;;;;;;5016935;28;20078;-78
2023/12/04 12:46:19;;;;;;;19.05;10.05;;;;;;;;;;5028038;28;20086;-78
2023/12/04 12:48:47;;;;;;;20.60;10.30;;;;;;;;;;5027344;28;20029;-77
2023/12/04 12:51:13;;;;;;;16.02;9.30;;;;;;;;;;5014838;28;20031;-78
2023/12/04 12:53:40;;;;;;;16.58;9.80;;;;;;;;;;5014744;28;20041;-77
2023/12/04 12:56:07;;;;;;;15.43;9.35;;;;;;;;;;5026474;28;20098;-79
2023/12/04 12:58:34;;;;;;;15.73;9.35;;;;;;;;;;5005658;28;20540;-78
2023/12/04 13:01:01;;;;;;;16.83;10.70;;;;;;;;;;5019651;28;20030;-79
2023/12/04 13:03:28;;;;;;;17.77;9.85;;;;;;;;;;5021517;28;20088;-79
2023/12/04 13:05:55;;;;;;;20.58;10.57;;;;;;;;;;5011753;28;20448;-79
2023/12/04 13:08:21;;;;;;;21.85;11.55;;;;;;;;;;5017718;28;20038;-78
2023/12/04 13:10:47;;;;;;;18.20;10.18;;;;;;;;;;5011971;28;20036;-77
2023/12/04 13:13:14;;;;;;;17.73;9.73;;;;;;;;;;5017580;28;20122;-79
2023/12/04 13:15:43;;;;;;;20.23;10.20;;;;;;;;;;5016266;28;20508;-81
2023/12/04 13:18:09;;;;;;;16.33;9.48;;;;;;;;;;5020372;28;20068;-77
2023/12/04 13:20:36;;;;;;;14.45;9.10;;;;;;;;;;5023437;28;20045;-78
2023/12/04 13:23:02;;;;;;;13.63;8.02;;;;;;;;;;5038102;28;20093;-78
2023/12/04 13:25:28;;;;;;;15.40;8.73;;;;;;;;;;5027006;28;20037;-79
2023/12/04 13:27:54;;;;;;;15.40;8.65;;;;;;;;;;5027140;28;20021;-78
2023/12/04 13:30:21;;;;;;;17.42;9.88;;;;;;;;;;5037660;28;20021;-76
2023/12/04 13:32:50;;;;;;;15.15;9.73;;;;;;;;;;5045054;28;20030;-77
2023/12/04 13:35:16;;;;;;;19.40;11.38;;;;;;;;;;5026185;28;20029;-78
2023/12/04 13:37:43;;;;;;;21.83;11.07;;;;;;;;;;5035576;28;20030;-78
2023/12/04 13:40:15;;;;;;;26.63;12.85;;;;;;;;;;5031954;28;20017;-78
2023/12/04 13:45:27;;;;;;;22.52;12.07;;;;;;;;;;5018758;28;20041;-79
2023/12/04 13:47:53;;;;;;;24.92;12.73;;;;;;;;;;5011050;28;20026;-79
2023/12/04 13:50:19;;;;;;;20.90;11.52;;;;;;;;;;5020322;28;20518;-80
2023/12/04 13:52:52;;;;;;;22.25;11.02;;;;;;;;;;5021733;28;20082;-79
2023/12/04 13:55:26;;;;;;;20.23;10.48;;;;;;;;;;5013177;28;20062;-79
2023/12/04 14:00:22;;;;;;;17.60;9.98;;;;;;;;;;5028226;28;20040;-79
2023/12/04 14:02:48;;;;;;;21.15;9.73;;;;;;;;;;5018691;28;20109;-78
2023/12/04 14:05:15;;;;;;;19.95;11.25;;;;;;;;;;5005132;28;20070;-82
2023/12/04 14:07:45;;;;;;;18.40;9.68;;;;;;;;;;5021492;28;20026;-80
2023/12/04 14:10:11;;;;;;;20.80;10.10;;;;;;;;;;5013867;28;20084;-82
2023/12/04 14:12:37;;;;;;;21.85;11.82;;;;;;;;;;5030070;28;20053;-82
2023/12/04 14:15:04;;;;;;;25.10;12.07;;;;;;;;;;5014401;28;20030;-83
2023/12/04 14:17:30;;;;;;;18.20;10.63;;;;;;;;;;5019860;28;20072;-83
2023/12/04 14:19:56;;;;;;;17.40;10.40;;;;;;;;;;5021360;28;20042;-81
2023/12/04 14:22:22;;;;;;;19.15;9.82;;;;;;;;;;5027887;28;20492;-82
2023/12/04 14:24:48;;;;;;;20.98;10.80;;;;;;;;;;5009423;28;20085;-81
2023/12/04 14:27:14;;;;;;;17.42;9.50;;;;;;;;;;5024644;28;20026;-80
2023/12/04 14:29:41;;;;;;;22.15;11.35;;;;;;;;;;5024499;28;20032;-82
2023/12/04 14:32:07;;;;;;;20.88;11.30;;;;;;;;;;5020058;28;20034;-81
2023/12/04 14:34:33;;;;;;;18.10;10.60;;;;;;;;;;5013260;28;20052;-82
2023/12/04 14:36:59;;;;;;;16.50;9.77;;;;;;;;;;5013548;28;20041;-80